createdAt,value
2022-10-17T00:00:05.990Z,100.00
2022-10-17T00:01:10.538Z,100.00
2022-10-17T00:02:12.369Z,100.00
2022-10-17T00:03:16.795Z,100.00
2022-10-17T00:04:18.645Z,100.00
2022-10-17T00:05:23.106Z,100.00
2022-10-17T00:06:24.911Z,100.00
2022-10-17T00:07:29.676Z,100.00
2022-10-17T00:08:31.913Z,100.00
2022-10-17T00:09:36.353Z,100.00
2022-10-17T00:10:39.534Z,100.00
2022-10-17T00:11:43.962Z,100.00
2022-10-17T00:12:45.826Z,100.00
2022-10-17T00:13:51.106Z,100.00
2022-10-17T00:14:52.966Z,100.00
2022-10-17T00:15:58.242Z,100.00
2022-10-17T00:17:00.119Z,100.00
2022-10-17T00:18:04.538Z,100.00
2022-10-17T00:19:09.795Z,100.00
2022-10-17T00:20:12.023Z,100.00
2022-10-17T00:21:20.116Z,100.00
2022-10-17T00:22:22.890Z,100.00
2022-10-17T00:23:27.631Z,100.00
2022-10-17T00:24:30.700Z,100.00
2022-10-17T00:25:35.215Z,100.00
2022-10-17T00:26:37.097Z,100.00
2022-10-17T00:27:42.094Z,100.00
2022-10-17T00:28:46.497Z,100.00
2022-10-17T00:29:51.757Z,100.00
2022-10-17T00:30:57.472Z,100.00
2022-10-17T00:32:01.898Z,100.00
2022-10-17T00:33:03.766Z,100.00
2022-10-17T00:34:08.332Z,100.00
2022-10-17T00:35:10.320Z,100.00
2022-10-17T00:36:15.001Z,100.00
2022-10-17T00:37:20.051Z,100.00
2022-10-17T00:38:21.926Z,100.00
2022-10-17T00:39:26.371Z,100.00
2022-10-17T00:40:28.190Z,100.00
2022-10-17T00:41:34.538Z,100.00
2022-10-17T00:42:40.554Z,100.00
2022-10-17T00:43:57.211Z,100.00
2022-10-17T00:45:01.173Z,100.00
2022-10-17T00:46:05.693Z,100.00
2022-10-17T00:47:09.687Z,100.00
2022-10-17T00:48:14.130Z,100.00
2022-10-17T00:49:16.028Z,100.00
2022-10-17T00:50:20.447Z,100.00
2022-10-17T00:51:23.843Z,100.00
2022-10-17T00:52:30.500Z,100.00
2022-10-17T00:53:33.195Z,100.00
2022-10-17T00:54:38.370Z,100.00
2022-10-17T00:55:45.085Z,100.00
2022-10-17T00:56:50.074Z,100.00
2022-10-17T00:57:51.986Z,100.00
2022-10-17T00:58:56.913Z,100.00
2022-10-17T00:59:58.861Z,100.00
2022-10-17T01:01:03.562Z,100.00
2022-10-17T01:02:09.792Z,100.00
2022-10-17T01:03:14.194Z,100.00
2022-10-17T01:04:16.727Z,100.00
2022-10-17T01:05:21.172Z,100.00
2022-10-17T01:06:23.015Z,100.00
2022-10-17T01:07:27.631Z,100.00
2022-10-17T01:08:29.522Z,100.00
2022-10-17T01:09:33.914Z,100.00
2022-10-17T01:11:04.770Z,100.00
2022-10-17T01:12:08.472Z,100.00
2022-10-17T01:13:24.863Z,100.00
2022-10-17T01:14:29.572Z,100.00
2022-10-17T01:15:37.214Z,100.00
2022-10-17T01:16:39.049Z,100.00
2022-10-17T01:17:46.568Z,100.00
2022-10-17T01:19:09.946Z,100.00
2022-10-17T01:20:11.761Z,100.00
2022-10-17T01:21:34.527Z,100.00
2022-10-17T01:22:39.246Z,100.00
2022-10-17T01:23:47.941Z,100.00
2022-10-17T01:25:02.253Z,100.00
2022-10-17T01:26:08.993Z,100.00
2022-10-17T01:27:18.284Z,100.00
2022-10-17T01:28:23.977Z,100.00
2022-10-17T01:29:30.539Z,100.00
2022-10-17T01:30:55.247Z,100.00
2022-10-17T01:31:57.085Z,100.00
2022-10-17T01:33:22.777Z,100.00
2022-10-17T01:34:31.455Z,100.00
2022-10-17T01:35:40.165Z,100.00
2022-10-17T01:36:45.001Z,100.00
2022-10-17T01:39:38.382Z,100.00
2022-10-17T01:40:44.692Z,100.00
2022-10-17T01:41:54.825Z,100.00
2022-10-17T01:43:08.090Z,100.00
2022-10-17T01:44:13.041Z,100.00
2022-10-17T01:45:16.922Z,100.00
2022-10-17T01:46:39.095Z,100.00
2022-10-17T01:47:40.899Z,100.00
2022-10-17T01:48:45.892Z,100.00
2022-10-17T01:49:47.739Z,100.00
2022-10-17T01:50:56.459Z,100.00
2022-10-17T01:51:59.795Z,100.00
2022-10-17T01:53:06.087Z,100.00
2022-10-17T01:54:10.608Z,100.00
2022-10-17T01:55:16.983Z,100.00
2022-10-17T01:56:18.802Z,100.00
2022-10-17T01:57:26.439Z,100.00
2022-10-17T01:58:30.210Z,100.00
2022-10-17T01:59:38.057Z,100.00
2022-10-17T02:00:42.782Z,100.00
2022-10-17T02:01:47.912Z,100.00
2022-10-17T02:02:51.269Z,100.00
2022-10-17T02:03:55.801Z,100.00
2022-10-17T02:04:57.661Z,100.00
2022-10-17T02:06:02.546Z,100.00
2022-10-17T02:07:10.634Z,100.00
2022-10-17T02:08:15.329Z,100.00
2022-10-17T02:09:17.412Z,100.00
2022-10-17T02:10:24.378Z,100.00
2022-10-17T02:11:26.998Z,100.00
2022-10-17T02:12:46.279Z,100.00
2022-10-17T02:13:48.366Z,100.00
2022-10-17T02:15:12.155Z,100.00
2022-10-17T02:16:14.197Z,100.00
2022-10-17T02:17:21.497Z,100.00
2022-10-17T02:18:31.602Z,100.00
2022-10-17T02:19:39.033Z,100.00
2022-10-17T02:20:49.714Z,100.00
2022-10-17T02:21:56.275Z,100.00
2022-10-17T02:23:26.893Z,100.00
2022-10-17T02:24:37.772Z,100.00
2022-10-17T02:25:56.473Z,100.00
2022-10-17T02:27:07.733Z,100.00
2022-10-17T02:28:17.103Z,100.00
2022-10-17T02:29:20.081Z,100.00
2022-10-17T02:30:24.501Z,100.00
2022-10-17T02:31:27.264Z,100.00
2022-10-17T02:32:31.647Z,100.00
2022-10-17T02:34:02.322Z,100.00
2022-10-17T02:35:04.463Z,100.00
2022-10-17T02:36:16.183Z,100.00
2022-10-17T02:37:19.021Z,100.00
2022-10-17T02:38:23.542Z,100.00
2022-10-17T02:39:25.823Z,100.00
2022-10-17T02:40:30.450Z,100.00
2022-10-17T02:41:32.443Z,100.00
2022-10-17T02:42:36.915Z,100.00
2022-10-17T02:43:38.746Z,100.00
2022-10-17T02:44:43.660Z,100.00
2022-10-17T02:45:51.376Z,100.00
2022-10-17T02:46:56.122Z,100.00
2022-10-17T02:48:11.795Z,100.00
2022-10-17T02:49:17.995Z,100.00
2022-10-17T02:50:23.070Z,100.00
2022-10-17T02:51:27.795Z,100.00
2022-10-17T02:52:44.488Z,100.00
2022-10-17T02:53:48.934Z,100.00
2022-10-17T02:54:56.841Z,100.00
2022-10-17T02:56:00.636Z,100.00
2022-10-17T02:57:12.734Z,100.00
2022-10-17T02:58:19.234Z,100.00
2022-10-17T02:59:24.560Z,100.00
2022-10-17T03:00:26.703Z,100.00
2022-10-17T03:01:31.275Z,100.00
2022-10-17T03:02:43.627Z,100.00
2022-10-17T03:03:48.154Z,100.00
2022-10-17T03:04:50.001Z,100.00
2022-10-17T03:05:55.036Z,100.00
2022-10-17T03:06:59.472Z,100.00
2022-10-17T03:08:03.878Z,100.00
2022-10-17T03:09:05.809Z,100.00
2022-10-17T03:10:10.420Z,100.00
2022-10-17T03:11:12.458Z,100.00
2022-10-17T03:12:17.523Z,100.00
2022-10-17T03:13:19.463Z,100.00
2022-10-17T03:14:24.011Z,100.00
2022-10-17T03:15:26.583Z,100.00
2022-10-17T03:16:31.094Z,100.00
2022-10-17T03:17:32.989Z,100.00
2022-10-17T03:18:37.483Z,100.00
2022-10-17T03:19:39.616Z,100.00
2022-10-17T03:20:44.032Z,100.00
2022-10-17T03:21:45.971Z,100.00
2022-10-17T03:22:50.395Z,100.00
2022-10-17T03:23:52.234Z,100.00
2022-10-17T03:24:58.850Z,100.00
2022-10-17T03:26:03.800Z,100.00
2022-10-17T03:27:08.397Z,100.00
2022-10-17T03:28:12.929Z,100.00
2022-10-17T03:29:17.524Z,100.00
2022-10-17T03:30:19.848Z,100.00
2022-10-17T03:31:24.332Z,100.00
2022-10-17T03:32:27.358Z,100.00
2022-10-17T03:33:31.982Z,100.00
2022-10-17T03:34:33.819Z,100.00
2022-10-17T03:35:38.853Z,100.00
2022-10-17T03:36:44.073Z,100.00
2022-10-17T03:37:47.193Z,100.00
2022-10-17T03:38:53.111Z,100.00
2022-10-17T03:39:54.937Z,100.00
2022-10-17T03:40:59.419Z,100.00
2022-10-17T03:42:01.737Z,100.00
2022-10-17T03:43:06.234Z,100.00
2022-10-17T03:44:08.069Z,100.00
2022-10-17T03:45:12.967Z,100.00
2022-10-17T03:46:14.930Z,100.00
2022-10-17T03:47:19.466Z,100.00
2022-10-17T03:48:21.928Z,100.00
2022-10-17T03:49:26.429Z,100.00
2022-10-17T03:50:28.417Z,100.00
2022-10-17T03:51:33.589Z,100.00
2022-10-17T03:52:39.015Z,100.00
2022-10-17T03:53:43.470Z,100.00
2022-10-17T03:54:45.674Z,100.00
2022-10-17T03:55:50.139Z,100.00
2022-10-17T03:56:53.112Z,100.00
2022-10-17T03:57:58.196Z,100.00
2022-10-17T03:59:00.030Z,100.00
2022-10-17T04:00:06.580Z,100.00
2022-10-17T04:01:17.469Z,100.00
2022-10-17T04:02:23.391Z,100.00
2022-10-17T04:03:25.369Z,100.00
2022-10-17T04:04:29.838Z,100.00
2022-10-17T04:05:32.397Z,100.00
2022-10-17T04:06:36.982Z,100.00
2022-10-17T04:07:39.633Z,100.00
2022-10-17T04:08:44.905Z,100.00
2022-10-17T04:09:50.824Z,100.00
2022-10-17T04:11:01.220Z,100.00
2022-10-17T04:12:03.251Z,100.00
2022-10-17T04:13:09.293Z,100.00
2022-10-17T04:14:11.122Z,100.00
2022-10-17T04:15:16.826Z,100.00
2022-10-17T04:16:19.999Z,100.00
2022-10-17T04:17:48.501Z,100.00
2022-10-17T04:18:58.438Z,100.00
2022-10-17T04:20:04.448Z,100.00
2022-10-17T04:21:06.558Z,100.00
2022-10-17T04:22:11.323Z,100.00
2022-10-17T04:23:14.811Z,100.00
2022-10-17T04:24:19.359Z,100.00
2022-10-17T04:25:26.652Z,100.00
2022-10-17T04:26:31.605Z,100.00
2022-10-17T04:27:33.443Z,100.00
2022-10-17T04:29:41.388Z,100.00
2022-10-17T04:30:58.892Z,100.00
2022-10-17T04:32:07.162Z,100.00
2022-10-17T04:33:35.774Z,100.00
2022-10-17T04:34:37.570Z,100.00
2022-10-17T04:35:42.066Z,100.00
2022-10-17T04:36:44.025Z,100.00
2022-10-17T04:37:48.480Z,100.00
2022-10-17T04:38:53.180Z,100.00
2022-10-17T04:39:58.456Z,100.00
2022-10-17T04:41:03.220Z,100.00
2022-10-17T04:42:07.853Z,100.00
2022-10-17T04:43:09.691Z,100.00
2022-10-17T04:44:15.371Z,100.00
2022-10-17T04:45:23.084Z,100.00
2022-10-17T04:46:32.746Z,100.00
2022-10-17T04:47:34.605Z,100.00
2022-10-17T04:48:39.701Z,100.00
2022-10-17T04:49:44.225Z,100.00
2022-10-17T04:50:55.599Z,100.00
2022-10-17T04:52:08.985Z,100.00
2022-10-17T04:53:23.433Z,100.00
2022-10-17T04:54:27.886Z,100.00
2022-10-17T04:55:37.917Z,100.00
2022-10-17T04:56:42.452Z,100.00
2022-10-17T04:57:44.834Z,100.00
2022-10-17T04:58:57.791Z,100.00
2022-10-17T04:59:59.712Z,100.00
2022-10-17T05:01:25.171Z,100.00
2022-10-17T05:02:28.624Z,100.00
2022-10-17T05:03:33.578Z,100.00
2022-10-17T05:04:35.745Z,100.00
2022-10-17T05:05:41.408Z,100.00
2022-10-17T05:06:43.257Z,100.00
2022-10-17T05:08:16.127Z,100.00
2022-10-17T05:09:19.030Z,100.00
2022-10-17T05:10:23.547Z,100.00
2022-10-17T05:11:31.105Z,100.00
2022-10-17T05:12:32.990Z,100.00
2022-10-17T05:13:37.490Z,100.00
2022-10-17T05:14:42.645Z,100.00
2022-10-17T05:15:44.472Z,100.00
2022-10-17T05:16:50.559Z,100.00
2022-10-17T05:17:54.690Z,100.00
2022-10-17T05:18:59.989Z,100.00
2022-10-17T05:20:06.830Z,100.00
2022-10-17T05:21:12.606Z,100.00
2022-10-17T05:22:15.869Z,100.00
2022-10-17T05:23:21.278Z,100.00
2022-10-17T05:24:24.689Z,100.00
2022-10-17T05:25:29.142Z,100.00
2022-10-17T05:26:33.595Z,100.00
2022-10-17T05:27:35.468Z,100.00
2022-10-17T05:28:40.222Z,100.00
2022-10-17T05:29:42.712Z,100.00
2022-10-17T05:31:05.091Z,100.00
2022-10-17T05:32:07.078Z,100.00
2022-10-17T05:33:12.653Z,100.00
2022-10-17T05:34:15.174Z,100.00
2022-10-17T05:35:20.187Z,100.00
2022-10-17T05:36:22.406Z,100.00
2022-10-17T05:37:26.933Z,100.00
2022-10-17T05:38:31.082Z,100.00
2022-10-17T05:39:35.549Z,100.00
2022-10-17T05:40:39.550Z,100.00
2022-10-17T05:41:44.116Z,100.00
2022-10-17T05:42:46.484Z,100.00
2022-10-17T05:43:51.151Z,100.00
2022-10-17T05:44:56.727Z,100.00
2022-10-17T05:46:01.186Z,100.00
2022-10-17T05:47:03.068Z,100.00
2022-10-17T05:48:09.098Z,100.00
2022-10-17T05:49:19.549Z,100.00
2022-10-17T05:50:36.471Z,100.00
2022-10-17T05:51:44.228Z,100.00
2022-10-17T05:52:48.998Z,100.00
2022-10-17T05:53:54.084Z,100.00
2022-10-17T05:55:00.772Z,100.00
2022-10-17T05:56:06.163Z,100.00
2022-10-17T05:57:08.027Z,100.00
2022-10-17T05:58:21.792Z,100.00
2022-10-17T05:59:28.570Z,100.00
2022-10-17T06:00:38.973Z,100.00
2022-10-17T06:01:40.983Z,100.00
2022-10-17T06:02:46.175Z,100.00
2022-10-17T06:03:50.165Z,100.00
2022-10-17T06:04:54.982Z,100.00
2022-10-17T06:06:05.939Z,100.00
2022-10-17T06:07:08.115Z,100.00
2022-10-17T06:08:12.899Z,100.00
2022-10-17T06:09:15.138Z,100.00
2022-10-17T06:10:23.569Z,100.00
2022-10-17T06:11:25.475Z,100.00
2022-10-17T06:12:30.224Z,100.00
2022-10-17T06:13:32.337Z,100.00
2022-10-17T06:14:39.342Z,100.00
2022-10-17T06:15:42.352Z,100.00
2022-10-17T06:16:47.830Z,100.00
2022-10-17T06:17:50.893Z,100.00
2022-10-17T06:18:55.418Z,100.00
2022-10-17T06:19:58.886Z,100.00
2022-10-17T06:21:13.057Z,100.00
2022-10-17T06:22:21.913Z,100.00
2022-10-17T06:23:23.744Z,100.00
2022-10-17T06:24:38.671Z,100.00
2022-10-17T06:25:40.647Z,100.00
2022-10-17T06:26:45.315Z,100.00
2022-10-17T06:27:49.519Z,100.00
2022-10-17T06:28:54.171Z,100.00
2022-10-17T06:29:56.019Z,100.00
2022-10-17T06:31:01.514Z,100.00
2022-10-17T06:32:03.758Z,100.00
2022-10-17T06:33:09.351Z,100.00
2022-10-17T06:34:11.306Z,100.00
2022-10-17T06:35:17.175Z,100.00
2022-10-17T06:36:20.129Z,100.00
2022-10-17T06:37:25.050Z,100.00
2022-10-17T06:38:28.413Z,100.00
2022-10-17T06:39:36.024Z,100.00
2022-10-17T06:40:45.263Z,100.00
2022-10-17T06:41:49.834Z,100.00
2022-10-17T06:42:56.886Z,100.00
2022-10-17T06:44:25.423Z,100.00
2022-10-17T06:45:58.892Z,100.00
2022-10-17T06:47:14.330Z,100.00
2022-10-17T06:48:18.953Z,100.00
2022-10-17T06:49:49.568Z,100.00
2022-10-17T06:51:04.632Z,100.00
2022-10-17T06:52:12.017Z,100.00
2022-10-17T06:53:25.155Z,100.00
2022-10-17T06:54:30.820Z,100.00
2022-10-17T06:56:11.198Z,100.00
2022-10-17T06:57:44.907Z,100.00
2022-10-17T06:59:08.069Z,100.00
2022-10-17T07:00:12.277Z,100.00
2022-10-17T07:01:21.485Z,100.00
2022-10-17T07:02:24.597Z,100.00
2022-10-17T07:03:30.479Z,100.00
2022-10-17T07:04:35.174Z,100.00
2022-10-17T07:05:37.074Z,100.00
2022-10-17T07:06:42.753Z,100.00
2022-10-17T07:07:52.160Z,100.00
2022-10-17T07:08:56.872Z,100.00
2022-10-17T07:09:58.895Z,100.00
2022-10-17T07:11:11.165Z,100.00
2022-10-17T07:12:15.606Z,100.00
2022-10-17T07:13:20.072Z,100.00
2022-10-17T07:14:26.255Z,100.00
2022-10-17T07:15:28.577Z,100.00
2022-10-17T07:16:33.203Z,100.00
2022-10-17T07:17:47.049Z,100.00
2022-10-17T07:18:49.499Z,100.00
2022-10-17T07:19:55.032Z,100.00
2022-10-17T07:20:56.946Z,100.00
2022-10-17T07:22:01.428Z,100.00
2022-10-17T07:23:03.438Z,100.00
2022-10-17T07:24:08.122Z,100.00
2022-10-17T07:25:10.198Z,100.00
2022-10-17T07:26:21.900Z,100.00
2022-10-17T07:27:24.782Z,100.00
2022-10-17T07:28:30.021Z,100.00
2022-10-17T07:29:36.160Z,100.00
2022-10-17T07:30:51.930Z,100.00
2022-10-17T07:31:55.747Z,100.00
2022-10-17T07:33:03.764Z,100.00
2022-10-17T07:34:08.977Z,100.00
2022-10-17T07:35:11.419Z,100.00
2022-10-17T07:36:16.753Z,100.00
2022-10-17T07:37:21.183Z,100.00
2022-10-17T07:38:31.253Z,100.00
2022-10-17T07:39:35.703Z,100.00
2022-10-17T07:40:40.187Z,100.00
2022-10-17T07:41:44.703Z,100.00
2022-10-17T07:42:46.762Z,100.00
2022-10-17T07:43:51.379Z,100.00
2022-10-17T07:44:56.854Z,100.00
2022-10-17T07:46:04.118Z,100.00
2022-10-17T07:47:07.630Z,100.00
2022-10-17T07:48:14.103Z,100.00
2022-10-17T07:49:18.587Z,100.00
2022-10-17T07:50:20.624Z,100.00
2022-10-17T07:51:25.066Z,100.00
2022-10-17T07:52:27.099Z,100.00
2022-10-17T07:53:31.839Z,100.00
2022-10-17T07:54:36.358Z,100.00
2022-10-17T07:55:38.586Z,100.00
2022-10-17T07:56:43.032Z,100.00
2022-10-17T07:57:44.935Z,100.00
2022-10-17T07:58:49.583Z,100.00
2022-10-17T07:59:52.039Z,100.00
2022-10-17T08:00:56.599Z,100.00
2022-10-17T08:01:59.549Z,100.00
2022-10-17T08:03:04.035Z,100.00
2022-10-17T08:04:08.548Z,100.00
2022-10-17T08:05:10.375Z,100.00
2022-10-17T08:06:15.382Z,100.00
2022-10-17T08:07:22.163Z,100.00
2022-10-17T08:08:30.469Z,100.00
2022-10-17T08:09:32.361Z,100.00
2022-10-17T08:10:36.759Z,100.00
2022-10-17T08:11:41.271Z,100.00
2022-10-17T08:12:43.177Z,100.00
2022-10-17T08:13:47.608Z,100.00
2022-10-17T08:14:49.411Z,100.00
2022-10-17T08:15:53.922Z,100.00
2022-10-17T08:16:56.080Z,100.00
2022-10-17T08:18:00.795Z,100.00
2022-10-17T08:19:05.706Z,100.00
2022-10-17T08:20:07.901Z,100.00
2022-10-17T08:21:13.377Z,100.00
2022-10-17T08:22:15.284Z,100.00
2022-10-17T08:23:19.752Z,100.00
2022-10-17T08:24:21.812Z,100.00
2022-10-17T08:25:26.813Z,100.00
2022-10-17T08:26:28.813Z,100.00
2022-10-17T08:27:33.730Z,100.00
2022-10-17T08:28:36.158Z,100.00
2022-10-17T08:29:40.975Z,100.00
2022-10-17T08:30:42.833Z,100.00
2022-10-17T08:31:48.324Z,100.00
2022-10-17T08:32:51.818Z,100.00
2022-10-17T08:33:56.247Z,100.00
2022-10-17T08:34:58.121Z,100.00
2022-10-17T08:36:03.159Z,100.00
2022-10-17T08:37:07.714Z,100.00
2022-10-17T08:38:12.247Z,100.00
2022-10-17T08:39:17.934Z,100.00
2022-10-17T08:40:24.138Z,100.00
2022-10-17T08:41:35.881Z,100.00
2022-10-17T08:42:43.233Z,100.00
2022-10-17T08:44:14.043Z,100.00
2022-10-17T08:45:32.839Z,100.00
2022-10-17T08:46:38.545Z,100.00
2022-10-17T08:47:44.740Z,100.00
2022-10-17T08:48:49.769Z,100.00
2022-10-17T08:49:55.906Z,100.00
2022-10-17T08:51:06.207Z,100.00
2022-10-17T08:52:14.479Z,100.00
2022-10-17T08:53:16.303Z,100.00
2022-10-17T08:54:25.561Z,100.00
2022-10-17T08:55:33.371Z,100.00
2022-10-17T08:56:49.899Z,100.00
2022-10-17T08:57:54.435Z,100.00
2022-10-17T08:58:58.866Z,100.00
2022-10-17T09:00:00.754Z,100.00
2022-10-17T09:01:11.963Z,100.00
2022-10-17T09:02:33.593Z,100.00
2022-10-17T09:03:48.793Z,100.00
2022-10-17T09:04:57.538Z,100.00
2022-10-17T09:06:10.430Z,100.00
2022-10-17T09:07:21.712Z,100.00
2022-10-17T09:08:29.160Z,100.00
2022-10-17T09:09:36.743Z,100.00
2022-10-17T09:10:54.273Z,100.00
2022-10-17T09:12:04.466Z,100.00
2022-10-17T09:13:25.189Z,100.00
2022-10-17T09:14:30.282Z,100.00
2022-10-17T09:15:53.362Z,100.00
2022-10-17T09:17:04.462Z,100.00
2022-10-17T09:18:12.111Z,100.00
2022-10-17T09:19:13.898Z,100.00
2022-10-17T09:20:25.581Z,100.00
2022-10-17T09:21:50.235Z,100.00
2022-10-17T09:24:22.587Z,100.00
2022-10-17T09:25:27.065Z,100.00
2022-10-17T09:26:28.867Z,100.00
2022-10-17T09:27:50.769Z,100.00
2022-10-17T09:28:56.244Z,100.00
2022-10-17T09:30:17.193Z,100.00
2022-10-17T09:31:38.328Z,100.00
2022-10-17T09:32:41.223Z,100.00
2022-10-17T09:33:54.840Z,100.00
2022-10-17T09:34:59.754Z,100.00
2022-10-17T09:36:01.630Z,100.00
2022-10-17T09:37:11.559Z,100.00
2022-10-17T09:38:25.959Z,100.00
2022-10-17T09:39:32.173Z,100.00
2022-10-17T09:40:34.764Z,100.00
2022-10-17T09:41:45.939Z,100.00
2022-10-17T09:42:52.011Z,100.00
2022-10-17T09:43:59.761Z,100.00
2022-10-17T09:45:01.539Z,100.00
2022-10-17T09:46:06.636Z,100.00
2022-10-17T09:47:14.515Z,100.00
2022-10-17T09:48:18.892Z,100.00
2022-10-17T09:49:25.511Z,100.00
2022-10-17T09:50:28.512Z,100.00
2022-10-17T09:51:33.280Z,100.00
2022-10-17T09:52:35.857Z,100.00
2022-10-17T09:53:41.239Z,100.00
2022-10-17T09:54:45.778Z,100.00
2022-10-17T09:55:51.111Z,100.00
2022-10-17T09:57:08.855Z,100.00
2022-10-17T09:58:13.579Z,100.00
2022-10-17T09:59:15.453Z,100.00
2022-10-17T10:00:27.960Z,100.00
2022-10-17T10:01:34.977Z,100.00
2022-10-17T10:02:40.959Z,100.00
2022-10-17T10:03:42.764Z,100.00
2022-10-17T10:05:06.942Z,100.00
2022-10-17T10:06:21.881Z,100.00
2022-10-17T10:07:29.095Z,100.00
2022-10-17T10:08:37.728Z,100.00
2022-10-17T10:09:40.478Z,100.00
2022-10-17T10:10:45.740Z,100.00
2022-10-17T10:11:56.943Z,100.00
2022-10-17T10:13:05.560Z,100.00
2022-10-17T10:14:14.300Z,100.00
2022-10-17T10:15:37.947Z,100.00
2022-10-17T10:16:45.713Z,100.00
2022-10-17T10:17:50.173Z,100.00
2022-10-17T10:18:54.682Z,100.00
2022-10-17T10:19:56.527Z,100.00
2022-10-17T10:21:10.140Z,100.00
2022-10-17T10:22:18.210Z,100.00
2022-10-17T10:23:22.260Z,100.00
2022-10-17T10:24:30.752Z,100.00
2022-10-17T10:25:33.128Z,100.00
2022-10-17T10:26:47.177Z,100.00
2022-10-17T10:27:49.051Z,100.00
2022-10-17T10:29:00.850Z,100.00
2022-10-17T10:30:05.535Z,100.00
2022-10-17T10:31:07.682Z,100.00
2022-10-17T10:32:12.086Z,100.00
2022-10-17T10:33:13.886Z,100.00
2022-10-17T10:34:29.773Z,100.00
2022-10-17T10:35:35.178Z,100.00
2022-10-17T10:36:46.432Z,100.00
2022-10-17T10:37:51.722Z,100.00
2022-10-17T10:38:54.614Z,100.00
2022-10-17T10:40:02.618Z,100.00
2022-10-17T10:41:08.026Z,100.00
2022-10-17T10:42:26.655Z,100.00
2022-10-17T10:43:38.919Z,100.00
2022-10-17T10:44:42.225Z,100.00
2022-10-17T10:45:48.319Z,100.00
2022-10-17T10:47:05.853Z,100.00
2022-10-17T10:48:37.378Z,100.00
2022-10-17T10:49:40.213Z,100.00
2022-10-17T10:51:13.924Z,100.00
2022-10-17T10:52:21.719Z,100.00
2022-10-17T10:53:35.453Z,100.00
2022-10-17T10:54:41.179Z,100.00
2022-10-17T10:55:56.712Z,100.00
2022-10-17T10:57:03.446Z,100.00
2022-10-17T10:58:10.129Z,100.00
2022-10-17T10:59:20.268Z,100.00
2022-10-17T11:00:26.101Z,100.00
2022-10-17T11:01:33.615Z,100.00
2022-10-17T11:02:57.331Z,99.29
2022-10-17T11:04:06.909Z,98.88
2022-10-17T11:05:19.152Z,98.40
2022-10-17T11:06:26.028Z,97.78
2022-10-17T11:07:31.152Z,96.26
2022-10-17T11:08:37.377Z,95.84
2022-10-17T11:10:00.504Z,96.28
2022-10-17T11:11:18.362Z,96.32
2022-10-17T11:12:39.610Z,96.57
2022-10-17T11:13:43.541Z,97.07
2022-10-17T11:14:47.897Z,96.81
2022-10-17T11:15:54.564Z,96.80
2022-10-17T11:16:59.950Z,96.89
2022-10-17T11:18:08.440Z,97.61
2022-10-17T11:19:49.659Z,96.49
2022-10-17T11:20:58.391Z,95.04
2022-10-17T11:22:05.877Z,95.28
2022-10-17T11:23:13.106Z,97.40
2022-10-17T11:24:16.958Z,97.51
2022-10-17T11:25:35.068Z,96.92
2022-10-17T11:26:41.587Z,96.23
2022-10-17T11:27:43.401Z,96.99
2022-10-17T11:28:47.884Z,97.37
2022-10-17T11:29:49.820Z,98.58
2022-10-17T11:30:54.335Z,99.09
2022-10-17T11:31:56.958Z,98.48
2022-10-17T11:33:03.006Z,99.72
2022-10-17T11:34:07.373Z,100.00
2022-10-17T11:35:20.409Z,99.83
2022-10-17T11:36:22.853Z,98.59
2022-10-17T11:37:29.675Z,97.88
2022-10-17T11:38:34.169Z,97.53
2022-10-17T11:40:04.955Z,96.83
2022-10-17T11:41:06.993Z,97.27
2022-10-17T11:42:22.862Z,96.96
2022-10-17T11:43:48.113Z,97.62
2022-10-17T11:44:52.535Z,97.53
2022-10-17T11:46:01.469Z,96.71
2022-10-17T11:47:10.297Z,96.46
2022-10-17T11:48:22.721Z,96.03
2022-10-17T11:52:55.411Z,96.00
2022-10-17T11:54:02.340Z,95.17
2022-10-17T11:55:09.375Z,95.36
2022-10-17T11:56:14.022Z,95.32
2022-10-17T11:57:37.595Z,95.06
2022-10-17T11:58:41.969Z,94.66
2022-10-17T12:00:01.803Z,95.28
2022-10-17T12:01:09.034Z,94.93
2022-10-17T12:02:20.241Z,94.83
2022-10-17T12:03:39.917Z,95.26
2022-10-17T12:04:50.456Z,94.31
2022-10-17T12:05:57.665Z,92.13
2022-10-17T12:07:04.953Z,91.92
2022-10-17T12:08:14.545Z,89.48
2022-10-17T12:09:19.274Z,89.44
2022-10-17T12:10:27.609Z,89.55
2022-10-17T12:11:36.386Z,88.55
2022-10-17T12:12:40.794Z,89.10
2022-10-17T12:13:50.119Z,89.93
2022-10-17T12:14:54.597Z,88.83
2022-10-17T12:15:57.075Z,89.02
2022-10-17T12:17:01.538Z,89.19
2022-10-17T12:18:03.976Z,88.01
2022-10-17T12:19:19.010Z,87.35
2022-10-17T12:20:23.601Z,88.47
2022-10-17T12:21:31.223Z,88.33
2022-10-17T12:22:34.083Z,87.06
2022-10-17T12:23:39.043Z,87.42
2022-10-17T12:24:42.031Z,86.84
2022-10-17T12:25:57.121Z,86.29
2022-10-17T12:27:31.367Z,87.82
2022-10-17T12:28:48.976Z,88.01
2022-10-17T12:29:51.002Z,87.63
2022-10-17T12:31:02.662Z,88.22
2022-10-17T12:32:11.137Z,89.77
2022-10-17T12:33:15.526Z,90.25
2022-10-17T12:34:19.932Z,90.26
2022-10-17T12:35:22.861Z,90.35
2022-10-17T12:36:30.314Z,89.70
2022-10-17T12:38:02.761Z,89.80
2022-10-17T12:39:11.748Z,89.99
2022-10-17T12:40:34.780Z,89.97
2022-10-17T12:41:42.616Z,90.88
2022-10-17T12:42:48.965Z,91.05
2022-10-17T12:43:57.125Z,91.88
2022-10-17T12:44:59.013Z,93.04
2022-10-17T12:46:04.055Z,93.61
2022-10-17T12:47:29.017Z,93.99
2022-10-17T12:48:34.408Z,95.17
2022-10-17T12:49:45.619Z,95.53
2022-10-17T12:52:36.887Z,95.61
2022-10-17T12:53:50.176Z,96.44
2022-10-17T12:55:13.001Z,97.65
2022-10-17T12:56:19.382Z,97.52
2022-10-17T12:57:21.200Z,98.14
2022-10-17T12:58:25.641Z,98.76
2022-10-17T12:59:30.430Z,98.97
2022-10-17T13:01:23.949Z,99.86
2022-10-17T13:02:30.880Z,100.00
2022-10-17T13:03:36.023Z,100.00
2022-10-17T13:04:38.126Z,100.00
2022-10-17T13:05:44.442Z,100.00
2022-10-17T13:06:48.236Z,100.00
2022-10-17T13:07:52.779Z,100.00
2022-10-17T13:09:04.062Z,100.00
2022-10-17T13:10:07.736Z,100.00
2022-10-17T13:11:13.579Z,100.00
2022-10-17T13:12:18.609Z,100.00
2022-10-17T13:13:24.274Z,100.00
2022-10-17T13:14:26.164Z,100.00
2022-10-17T13:15:30.582Z,100.00
2022-10-17T13:16:36.265Z,100.00
2022-10-17T13:17:43.021Z,100.00
2022-10-17T13:18:48.364Z,100.00
2022-10-17T13:19:50.230Z,100.00
2022-10-17T13:20:58.795Z,100.00
2022-10-17T13:22:06.554Z,100.00
2022-10-17T13:23:24.891Z,100.00
2022-10-17T13:24:33.456Z,100.00
2022-10-17T13:25:39.617Z,100.00
2022-10-17T13:26:45.375Z,100.00
2022-10-17T13:27:50.511Z,100.00
2022-10-17T13:29:05.546Z,100.00
2022-10-17T13:30:29.494Z,100.00
2022-10-17T13:31:35.824Z,100.00
2022-10-17T13:32:42.385Z,100.00
2022-10-17T13:33:44.442Z,100.00
2022-10-17T13:34:48.897Z,100.00
2022-10-17T13:36:00.293Z,100.00
2022-10-17T13:37:09.361Z,100.00
2022-10-17T13:38:13.981Z,100.00
2022-10-17T13:39:23.101Z,100.00
2022-10-17T13:40:49.461Z,100.00
2022-10-17T13:41:58.242Z,100.00
2022-10-17T13:43:02.253Z,100.00
2022-10-17T13:44:07.611Z,100.00
2022-10-17T13:45:31.161Z,100.00
2022-10-17T13:46:38.445Z,100.00
2022-10-17T13:47:44.118Z,100.00
2022-10-17T13:48:49.586Z,100.00
2022-10-17T13:49:55.541Z,100.00
2022-10-17T13:51:02.464Z,100.00
2022-10-17T13:52:08.147Z,100.00
2022-10-17T13:53:15.726Z,100.00
2022-10-17T13:54:20.980Z,100.00
2022-10-17T13:55:25.410Z,100.00
2022-10-17T13:56:31.988Z,100.00
2022-10-17T13:57:34.238Z,100.00
2022-10-17T13:58:47.642Z,100.00
2022-10-17T13:59:50.322Z,100.00
2022-10-17T14:00:54.905Z,100.00
2022-10-17T14:02:01.715Z,100.00
2022-10-17T14:03:06.900Z,100.00
2022-10-17T14:04:19.834Z,100.00
2022-10-17T14:05:23.426Z,100.00
2022-10-17T14:06:28.295Z,100.00
2022-10-17T14:09:25.619Z,100.00
2022-10-17T14:10:35.471Z,100.00
2022-10-17T14:11:40.989Z,100.00
2022-10-17T14:12:43.080Z,100.00